Time;durP1;ratioP1;P1;durP2;ratioP2;P2;SDS_P1;SDS_P2;PMS_P1;PMS_P2;Temp;Humidity;BMP_temperature;BMP_pressure;BME280_temperature;BME280_humidity;BME280_pressure;Samples;Min_cycle;Max_cycle;Signal;HPM_P1;HPM_P2
2023/12/15 00:01:00;;;;;;;4.17;3.83;;;6.00;99.90;;;;;;5012964;28;20250;-66
2023/12/15 00:03:27;;;;;;;4.63;3.97;;;6.00;99.90;;;;;;5013125;28;20259;-65
2023/12/15 00:05:54;;;;;;;4.00;3.70;;;5.90;99.90;;;;;;5012745;28;20217;-65
2023/12/15 00:08:21;;;;;;;4.83;4.07;;;6.00;99.90;;;;;;5012397;28;20228;-65
2023/12/15 00:10:48;;;;;;;4.40;4.00;;;6.00;99.90;;;;;;5011050;28;20235;-65
2023/12/15 00:13:15;;;;;;;4.00;3.70;;;6.00;99.90;;;;;;5012454;28;20267;-65
2023/12/15 00:15:42;;;;;;;4.87;4.47;;;6.00;99.90;;;;;;5012615;28;20200;-65
2023/12/15 00:18:11;;;;;;;4.03;3.73;;;6.00;99.90;;;;;;5027405;28;20274;-65
2023/12/15 00:20:38;;;;;;;2.67;2.57;;;6.00;99.90;;;;;;5032440;28;20231;-65
2023/12/15 00:23:05;;;;;;;2.90;2.27;;;6.10;99.90;;;;;;5029320;28;20235;-65
2023/12/15 00:25:31;;;;;;;2.70;2.60;;;6.10;99.90;;;;;;5004922;28;20257;-65
2023/12/15 00:27:58;;;;;;;2.27;2.13;;;6.10;99.90;;;;;;5011879;28;20221;-65
2023/12/15 00:30:25;;;;;;;2.97;2.77;;;6.00;99.90;;;;;;5012384;28;20272;-65
2023/12/15 00:32:53;;;;;;;3.40;3.20;;;6.00;99.90;;;;;;5011240;28;20205;-65
2023/12/15 00:35:21;;;;;;;3.13;2.93;;;6.00;99.90;;;;;;5011976;28;20664;-65
2023/12/15 00:37:48;;;;;;;3.20;3.10;;;5.90;99.90;;;;;;5011733;28;20213;-65
2023/12/15 00:40:16;;;;;;;4.03;3.73;;;6.00;99.90;;;;;;5011305;28;20203;-66
2023/12/15 00:42:42;;;;;;;2.93;2.83;;;6.00;99.90;;;;;;5011277;28;20199;-66
2023/12/15 00:45:10;;;;;;;3.30;3.00;;;6.00;99.90;;;;;;5011854;28;20197;-66
2023/12/15 00:47:37;;;;;;;4.53;3.20;;;6.00;99.90;;;;;;5015636;28;20221;-65
2023/12/15 00:50:05;;;;;;;4.27;3.87;;;5.90;99.90;;;;;;5022904;28;20197;-66
2023/12/15 00:52:33;;;;;;;3.90;3.63;;;6.00;99.90;;;;;;5010012;28;20789;-65
2023/12/15 00:55:00;;;;;;;3.57;3.27;;;5.90;99.90;;;;;;5011749;28;20205;-65
2023/12/15 00:57:27;;;;;;;3.60;3.40;;;6.00;99.90;;;;;;5011065;28;20205;-65
2023/12/15 00:59:54;;;;;;;4.07;3.67;;;5.90;99.90;;;;;;5011745;28;20229;-65
2023/12/15 01:02:21;;;;;;;3.00;2.80;;;5.90;99.90;;;;;;5011366;28;20259;-65
2023/12/15 01:04:48;;;;;;;3.57;3.37;;;5.90;99.90;;;;;;5013572;28;20264;-66
2023/12/15 01:07:15;;;;;;;3.70;3.50;;;5.90;99.90;;;;;;5013585;28;20724;-65
2023/12/15 01:09:43;;;;;;;3.27;3.07;;;5.50;99.90;;;;;;5011637;28;20279;-65
2023/12/15 01:12:10;;;;;;;3.67;3.37;;;6.00;99.90;;;;;;5010044;28;20262;-65
2023/12/15 01:14:37;;;;;;;3.30;3.20;;;5.80;99.90;;;;;;5012092;28;20201;-65
2023/12/15 01:17:04;;;;;;;3.63;3.43;;;6.00;99.90;;;;;;5010480;28;20201;-66
2023/12/15 01:19:31;;;;;;;3.90;3.60;;;6.00;99.90;;;;;;5017108;28;20262;-65
2023/12/15 01:21:58;;;;;;;4.43;4.03;;;6.00;99.90;;;;;;5020407;28;20619;-65
2023/12/15 01:24:25;;;;;;;3.60;3.30;;;6.10;99.90;;;;;;5011706;28;20212;-65
2023/12/15 01:26:53;;;;;;;4.83;4.33;;;6.00;99.90;;;;;;5005829;28;20772;-65
2023/12/15 01:29:20;;;;;;;5.63;4.70;;;6.00;99.90;;;;;;5009501;28;20309;-66
2023/12/15 01:31:47;;;;;;;4.30;4.00;;;6.10;99.90;;;;;;5011340;28;20256;-65
2023/12/15 01:34:14;;;;;;;4.27;3.87;;;6.20;99.90;;;;;;5011598;28;20205;-65
2023/12/15 01:36:41;;;;;;;3.40;3.10;;;6.00;99.90;;;;;;5024468;28;20200;-65
2023/12/15 01:39:08;;;;;;;4.63;4.23;;;6.10;99.90;;;;;;5030834;28;20228;-65
2023/12/15 01:41:35;;;;;;;3.83;3.53;;;6.10;99.90;;;;;;5020577;28;20553;-65
2023/12/15 01:44:04;;;;;;;4.30;3.50;;;6.20;99.90;;;;;;5012290;28;20201;-66
2023/12/15 01:46:30;;;;;;;4.10;3.80;;;6.20;99.90;;;;;;5015335;28;20217;-65
2023/12/15 01:48:58;;;;;;;4.17;3.87;;;6.10;99.90;;;;;;5015215;28;20634;-65
2023/12/15 01:51:25;;;;;;;3.80;3.47;;;6.00;99.90;;;;;;5016433;28;20201;-65
2023/12/15 01:53:52;;;;;;;3.47;3.27;;;6.00;99.90;;;;;;5030651;28;20205;-66
2023/12/15 01:56:19;;;;;;;3.20;3.00;;;5.90;99.90;;;;;;5013853;28;20205;-64
2023/12/15 01:58:46;;;;;;;3.00;2.80;;;5.90;99.90;;;;;;5014388;28;20275;-66
2023/12/15 02:01:14;;;;;;;1.97;1.73;;;6.10;99.90;;;;;;5014866;28;20624;-65
2023/12/15 02:03:41;;;;;;;3.33;3.13;;;6.00;99.90;;;;;;5015330;28;20205;-65
2023/12/15 02:06:08;;;;;;;2.43;2.33;;;6.00;99.90;;;;;;5013777;28;20206;-65
2023/12/15 02:08:35;;;;;;;1.77;1.67;;;6.00;99.90;;;;;;5013962;28;20219;-65
2023/12/15 02:11:02;;;;;;;1.80;1.70;;;5.90;99.90;;;;;;5015009;28;20203;-66
2023/12/15 02:13:30;;;;;;;1.87;1.77;;;5.80;99.90;;;;;;5013832;28;20297;-65
2023/12/15 02:15:57;;;;;;;2.43;2.33;;;5.70;99.90;;;;;;5014124;28;20198;-65
2023/12/15 02:18:25;;;;;;;2.43;2.33;;;5.60;99.90;;;;;;5014112;28;20264;-65
2023/12/15 02:20:52;;;;;;;2.77;2.57;;;5.50;99.90;;;;;;5013004;28;20201;-65
2023/12/15 02:23:20;;;;;;;4.03;3.73;;;5.50;99.90;;;;;;5014854;28;20204;-65
2023/12/15 02:25:47;;;;;;;4.10;3.67;;;5.40;99.90;;;;;;5019228;28;20216;-65
2023/12/15 02:28:14;;;;;;;3.13;2.90;;;5.30;99.90;;;;;;5014404;28;20229;-65
2023/12/15 02:30:41;;;;;;;3.70;3.40;;;5.20;99.90;;;;;;5014406;28;20251;-65
2023/12/15 02:33:08;;;;;;;4.13;3.73;;;5.20;99.90;;;;;;5013828;28;20209;-64
2023/12/15 02:35:36;;;;;;;4.67;3.97;;;5.10;99.90;;;;;;5014390;28;20199;-65
2023/12/15 02:38:07;;;;;;;4.80;3.80;;;5.10;99.90;;;;;;5013813;28;20791;-64
2023/12/15 02:40:35;;;;;;;4.30;3.83;;;5.20;99.90;;;;;;5027411;28;20304;-65
2023/12/15 02:43:02;;;;;;;5.67;4.07;;;5.10;99.90;;;;;;5034424;28;20631;-64
2023/12/15 02:45:29;;;;;;;3.43;3.13;;;5.10;99.90;;;;;;5013649;28;20612;-65
2023/12/15 02:47:56;;;;;;;5.20;4.23;;;5.10;99.90;;;;;;5013749;28;20287;-64
2023/12/15 02:50:23;;;;;;;4.23;3.77;;;5.00;99.90;;;;;;5014815;28;20213;-65
2023/12/15 02:52:50;;;;;;;4.63;3.43;;;5.00;99.90;;;;;;5033712;28;20683;-64
2023/12/15 02:55:17;;;;;;;3.83;3.43;;;5.00;99.90;;;;;;5014436;28;20219;-65
2023/12/15 02:57:46;;;;;;;3.87;3.57;;;5.00;99.90;;;;;;5009035;28;20206;-65
2023/12/15 03:00:14;;;;;;;3.70;3.40;;;5.00;99.90;;;;;;5014260;28;20205;-64
2023/12/15 03:02:41;;;;;;;3.60;3.33;;;4.90;99.90;;;;;;5011887;28;20655;-64
2023/12/15 03:05:08;;;;;;;3.90;3.60;;;4.70;99.90;;;;;;5014222;28;20205;-65
2023/12/15 03:07:35;;;;;;;4.90;4.30;;;4.80;99.90;;;;;;5013863;28;20281;-66
2023/12/15 03:10:02;;;;;;;5.00;3.93;;;4.80;99.90;;;;;;5012039;28;20650;-64
2023/12/15 03:12:30;;;;;;;3.10;2.80;;;4.80;99.90;;;;;;5004636;28;20202;-66
2023/12/15 03:14:58;;;;;;;6.07;3.87;;;4.90;99.90;;;;;;5012103;28;20197;-65
2023/12/15 03:17:25;;;;;;;3.40;3.20;;;4.90;99.90;;;;;;5012486;28;20289;-65
2023/12/15 03:19:52;;;;;;;3.13;2.93;;;4.90;99.90;;;;;;5013809;28;20716;-65
2023/12/15 03:22:19;;;;;;;3.47;3.17;;;5.00;99.90;;;;;;5015914;28;20677;-66
2023/12/15 03:24:46;;;;;;;3.50;3.20;;;5.00;99.90;;;;;;5013555;28;20665;-65
2023/12/15 03:27:13;;;;;;;3.60;3.13;;;5.00;99.90;;;;;;5012643;28;20359;-64
2023/12/15 03:29:40;;;;;;;3.60;3.00;;;4.90;99.90;;;;;;5013086;28;20220;-65
2023/12/15 03:32:09;;;;;;;3.87;3.47;;;4.80;99.90;;;;;;5014161;28;20215;-65
2023/12/15 03:34:36;;;;;;;3.30;3.10;;;4.90;99.90;;;;;;5013230;28;20744;-65
2023/12/15 03:37:03;;;;;;;3.33;3.03;;;4.90;99.90;;;;;;5019523;28;20205;-65
2023/12/15 03:39:30;;;;;;;3.70;3.40;;;5.00;99.90;;;;;;5015297;28;20219;-65
2023/12/15 03:41:57;;;;;;;3.43;3.10;;;5.00;99.90;;;;;;5013245;28;20217;-65
2023/12/15 03:44:24;;;;;;;2.47;2.13;;;5.00;99.90;;;;;;5013620;28;20247;-65
2023/12/15 03:46:54;;;;;;;2.53;2.33;;;5.10;99.90;;;;;;5013529;28;20219;-65
2023/12/15 03:49:23;;;;;;;3.07;2.17;;;5.00;99.90;;;;;;5012616;28;20279;-65
2023/12/15 03:51:53;;;;;;;3.13;2.93;;;5.00;99.90;;;;;;5011689;28;20204;-65
2023/12/15 03:54:20;;;;;;;1.87;1.77;;;5.00;99.90;;;;;;5028025;28;20258;-66
2023/12/15 03:56:56;;;;;;;3.03;2.47;;;5.00;99.90;;;;;;5032924;28;20291;-65
2023/12/15 03:59:23;;;;;;;3.23;3.03;;;5.10;99.90;;;;;;5032550;28;20308;-64
2023/12/15 04:01:51;;;;;;;2.37;2.13;;;5.10;99.90;;;;;;5033198;28;20228;-66
2023/12/15 04:04:19;;;;;;;2.90;1.90;;;5.10;99.90;;;;;;5013380;28;20205;-65
2023/12/15 04:06:47;;;;;;;2.13;2.03;;;7.60;99.90;;;;;;5011698;28;20208;-64
2023/12/15 04:09:14;;;;;;;2.67;2.47;;;5.10;99.90;;;;;;5016511;28;20290;-65
2023/12/15 04:11:41;;;;;;;1.93;1.83;;;5.00;99.90;;;;;;5012594;28;20677;-65
2023/12/15 04:14:08;;;;;;;2.57;2.37;;;5.00;99.90;;;;;;5011265;28;20628;-65
2023/12/15 04:16:35;;;;;;;1.50;1.40;;;5.10;99.90;;;;;;5012122;28;20684;-65
2023/12/15 04:19:02;;;;;;;2.00;1.90;;;5.10;99.90;;;;;;5000778;28;20220;-66
2023/12/15 04:21:29;;;;;;;2.87;2.23;;;5.10;99.90;;;;;;5011053;28;20256;-65
2023/12/15 04:23:58;;;;;;;2.40;2.00;;;4.90;99.90;;;;;;5012561;28;20197;-65
2023/12/15 04:26:25;;;;;;;1.60;1.50;;;5.10;99.90;;;;;;5019630;28;20273;-65
2023/12/15 04:28:53;;;;;;;1.67;1.57;;;5.10;99.90;;;;;;5012138;28;20320;-64
2023/12/15 04:31:20;;;;;;;1.30;1.20;;;5.00;99.90;;;;;;5010470;28;20668;-65
2023/12/15 04:33:47;;;;;;;1.43;1.33;;;5.00;99.90;;;;;;5011999;28;20622;-66
2023/12/15 04:36:14;;;;;;;1.53;1.43;;;5.00;99.90;;;;;;5003966;28;20270;-65
2023/12/15 04:38:41;;;;;;;2.00;1.90;;;4.90;99.90;;;;;;5016064;28;20236;-65
2023/12/15 04:41:17;;;;;;;1.60;1.50;;;4.90;99.90;;;;;;5014408;28;20208;-65
2023/12/15 04:43:45;;;;;;;4.40;2.13;;;5.00;99.90;;;;;;5012526;28;20251;-63
2023/12/15 04:46:12;;;;;;;1.50;1.40;;;5.00;99.90;;;;;;5012158;28;20206;-63
2023/12/15 04:48:39;;;;;;;3.47;1.77;;;5.00;99.90;;;;;;5010469;28;20300;-62
2023/12/15 04:51:06;;;;;;;1.53;1.43;;;5.00;99.90;;;;;;5003631;28;20201;-63
2023/12/15 04:53:33;;;;;;;2.30;2.00;;;5.00;99.90;;;;;;5011662;28;20199;-63
2023/12/15 04:55:59;;;;;;;2.00;1.90;;;5.10;99.90;;;;;;5011629;28;20197;-63
2023/12/15 04:58:27;;;;;;;3.03;1.80;;;3.50;99.90;;;;;;5015175;28;20267;-63
2023/12/15 05:00:54;;;;;;;2.70;2.50;;;5.10;99.90;;;;;;5015123;28;20263;-63
2023/12/15 05:03:21;;;;;;;1.53;1.40;;;5.10;99.90;;;;;;5010252;28;20205;-63
2023/12/15 05:05:48;;;;;;;2.27;2.13;;;5.10;99.90;;;;;;5009587;28;20274;-64
2023/12/15 05:08:15;;;;;;;1.60;1.50;;;5.10;99.90;;;;;;5010386;28;20226;-63
2023/12/15 05:10:42;;;;;;;2.23;2.07;;;5.00;99.90;;;;;;5010159;28;20253;-63
2023/12/15 05:13:09;;;;;;;2.87;2.67;;;5.00;99.90;;;;;;5008912;28;20708;-63
2023/12/15 05:15:38;;;;;;;3.77;3.27;;;5.00;99.90;;;;;;5008139;28;20620;-63
2023/12/15 05:18:05;;;;;;;2.93;2.70;;;4.90;99.90;;;;;;5005703;28;20254;-63
2023/12/15 05:20:36;;;;;;;3.33;3.00;;;4.90;99.90;;;;;;5011885;28;20246;-62
2023/12/15 05:23:03;;;;;;;3.07;2.67;;;4.90;99.90;;;;;;5011785;28;20203;-63
2023/12/15 05:25:30;;;;;;;2.77;2.47;;;4.90;99.90;;;;;;5011504;28;20759;-62
2023/12/15 05:27:57;;;;;;;3.23;3.03;;;4.90;99.90;;;;;;5010625;28;20232;-63
2023/12/15 05:30:24;;;;;;;3.23;2.97;;;5.00;99.90;;;;;;5011028;28;20264;-63
2023/12/15 05:32:52;;;;;;;3.70;3.37;;;5.00;99.90;;;;;;5011392;28;20206;-64
2023/12/15 05:35:19;;;;;;;3.63;3.33;;;5.00;99.90;;;;;;5011709;28;20205;-63
2023/12/15 05:37:46;;;;;;;3.30;3.03;;;5.00;99.90;;;;;;5009687;28;20256;-63
2023/12/15 05:40:13;;;;;;;2.90;2.60;;;4.90;99.90;;;;;;5005146;28;20206;-63
2023/12/15 05:42:40;;;;;;;3.57;3.00;;;4.90;99.90;;;;;;5010870;28;20209;-63
2023/12/15 05:45:08;;;;;;;3.10;2.80;;;4.90;99.90;;;;;;5008058;28;20259;-63
2023/12/15 05:47:37;;;;;;;3.23;3.03;;;4.80;99.90;;;;;;5003496;28;20218;-64
2023/12/15 05:50:06;;;;;;;3.70;3.30;;;4.80;99.90;;;;;;5005385;28;20265;-63
2023/12/15 05:52:33;;;;;;;3.90;3.33;;;4.80;99.90;;;;;;4993908;28;20289;-63
2023/12/15 05:55:01;;;;;;;5.00;4.50;;;4.70;99.90;;;;;;5006011;28;20671;-63
2023/12/15 05:57:28;;;;;;;4.20;3.60;;;4.70;99.90;;;;;;5009070;28;20211;-63
2023/12/15 05:59:55;;;;;;;3.77;3.47;;;4.70;99.90;;;;;;5010217;28;20219;-63
2023/12/15 06:02:22;;;;;;;4.07;3.67;;;4.70;99.90;;;;;;5010000;28;20322;-63
2023/12/15 06:04:49;;;;;;;3.37;3.07;;;4.70;99.90;;;;;;5009880;28;20302;-63
2023/12/15 06:07:18;;;;;;;5.57;3.23;;;4.70;99.90;;;;;;5027389;28;20216;-63
2023/12/15 06:09:45;;;;;;;3.87;3.57;;;4.60;99.90;;;;;;5012590;28;20249;-63
2023/12/15 06:12:12;;;;;;;3.80;3.50;;;4.60;99.90;;;;;;5011172;28;20258;-63
2023/12/15 06:14:38;;;;;;;4.10;3.70;;;4.60;99.90;;;;;;5011332;28;20214;-63
2023/12/15 06:17:06;;;;;;;4.27;3.97;;;4.60;99.90;;;;;;5027844;28;20251;-63
2023/12/15 06:19:33;;;;;;;4.17;3.83;;;4.60;99.90;;;;;;5010321;28;20303;-63
2023/12/15 06:22:00;;;;;;;4.27;3.87;;;4.60;99.90;;;;;;5010969;28;20763;-62
2023/12/15 06:24:29;;;;;;;6.07;3.57;;;4.60;99.90;;;;;;5011203;28;20207;-63
2023/12/15 06:26:56;;;;;;;4.37;3.93;;;4.50;99.90;;;;;;5010020;28;20202;-63
2023/12/15 06:29:23;;;;;;;4.67;3.87;;;4.50;99.90;;;;;;5012778;28;20682;-63
2023/12/15 06:31:50;;;;;;;4.17;3.73;;;4.50;99.90;;;;;;5013237;28;20692;-64
2023/12/15 06:34:17;;;;;;;4.97;4.47;;;4.50;99.90;;;;;;5010963;28;20732;-63
2023/12/15 06:36:44;;;;;;;4.70;4.30;;;4.50;99.90;;;;;;5013527;28;20656;-63
2023/12/15 06:39:11;;;;;;;4.70;4.37;;;4.40;99.90;;;;;;5013195;28;20220;-63
2023/12/15 06:41:39;;;;;;;4.83;3.70;;;4.40;99.90;;;;;;5013357;28;20737;-63
2023/12/15 06:44:06;;;;;;;4.67;4.23;;;4.40;99.90;;;;;;5013080;28;20205;-63
2023/12/15 06:46:36;;;;;;;5.97;3.87;;;4.40;99.90;;;;;;5010472;28;20203;-62
2023/12/15 06:49:03;;;;;;;6.70;3.67;;;4.40;99.90;;;;;;5012993;28;20752;-62
2023/12/15 06:51:30;;;;;;;3.47;3.17;;;4.50;99.90;;;;;;5007817;28;20205;-63
2023/12/15 06:53:57;;;;;;;4.60;4.00;;;4.40;99.90;;;;;;5013041;28;20628;-63
2023/12/15 06:56:24;;;;;;;3.90;3.47;;;4.40;99.90;;;;;;5013156;28;20676;-63
2023/12/15 06:58:53;;;;;;;4.17;3.77;;;4.40;99.90;;;;;;5012636;28;20230;-63
2023/12/15 07:01:21;;;;;;;4.37;3.97;;;4.40;99.90;;;;;;5013157;28;20220;-64
2023/12/15 07:03:48;;;;;;;4.50;4.10;;;4.40;99.90;;;;;;5012788;28;20303;-63
2023/12/15 07:06:18;;;;;;;6.67;4.57;;;4.30;99.90;;;;;;5012425;28;20297;-63
2023/12/15 07:08:48;;;;;;;4.57;4.17;;;4.40;99.90;;;;;;5011865;28;20257;-64
2023/12/15 07:11:15;;;;;;;5.13;3.80;;;4.30;99.90;;;;;;5014083;28;20321;-63
2023/12/15 07:13:42;;;;;;;3.90;3.53;;;4.30;99.90;;;;;;5011909;28;20280;-63
2023/12/15 07:16:12;;;;;;;4.70;3.97;;;4.40;99.90;;;;;;5012589;28;20204;-63
2023/12/15 07:18:39;;;;;;;4.10;3.70;;;4.40;99.90;;;;;;5013582;28;20221;-63
2023/12/15 07:21:07;;;;;;;3.60;3.30;;;4.40;99.90;;;;;;5012498;28;20213;-63
2023/12/15 07:23:34;;;;;;;4.53;3.87;;;4.30;99.90;;;;;;5010422;28;20565;-62
2023/12/15 07:26:01;;;;;;;5.07;4.57;;;4.40;99.90;;;;;;5012975;28;20240;-62
2023/12/15 07:28:28;;;;;;;4.70;4.30;;;4.30;99.90;;;;;;5008164;28;20759;-63
2023/12/15 07:30:55;;;;;;;4.33;3.90;;;4.30;99.90;;;;;;5012843;28;20620;-62
2023/12/15 07:33:24;;;;;;;4.10;3.63;;;4.30;99.90;;;;;;5012368;28;20232;-63
2023/12/15 07:35:51;;;;;;;4.03;3.57;;;4.40;99.90;;;;;;5012453;28;20205;-64
2023/12/15 07:38:18;;;;;;;4.23;3.83;;;4.40;99.90;;;;;;5010093;28;20281;-64
2023/12/15 07:40:45;;;;;;;4.70;4.30;;;4.30;99.90;;;;;;5014335;28;20660;-64
2023/12/15 07:43:12;;;;;;;4.43;4.00;;;4.40;99.90;;;;;;5011668;28;20203;-64
2023/12/15 07:45:39;;;;;;;9.90;5.13;;;4.50;99.90;;;;;;5012579;28;20254;-63
2023/12/15 07:48:07;;;;;;;5.57;4.07;;;4.50;99.90;;;;;;5011703;28;20280;-63
2023/12/15 07:50:36;;;;;;;6.03;4.43;;;4.50;99.90;;;;;;5008609;28;20207;-63
2023/12/15 07:53:03;;;;;;;4.23;3.93;;;4.30;99.90;;;;;;5014547;28;20201;-64
2023/12/15 07:55:30;;;;;;;5.90;4.57;;;4.60;99.90;;;;;;5011456;28;20213;-64
2023/12/15 07:57:57;;;;;;;4.33;3.93;;;4.60;99.90;;;;;;5010664;28;20228;-63
2023/12/15 08:00:24;;;;;;;5.53;4.40;;;4.70;99.90;;;;;;5011370;28;20284;-64
2023/12/15 08:02:51;;;;;;;6.10;4.93;;;4.80;99.90;;;;;;5011998;28;20200;-63
2023/12/15 08:05:19;;;;;;;4.67;4.27;;;4.90;99.90;;;;;;5012413;28;20277;-64
2023/12/15 08:07:47;;;;;;;5.63;3.67;;;5.00;99.90;;;;;;5012214;28;20201;-64
2023/12/15 08:10:14;;;;;;;8.83;4.13;;;5.00;99.90;;;;;;5012067;28;20265;-63
2023/12/15 08:12:41;;;;;;;5.90;4.30;;;;;;;;;;5011062;28;20280;-63
2023/12/15 08:15:09;;;;;;;6.10;4.80;;;5.10;99.90;;;;;;5010821;28;20209;-63
2023/12/15 08:17:36;;;;;;;7.93;4.80;;;5.10;99.90;;;;;;5010955;28;20255;-62
2023/12/15 08:20:04;;;;;;;6.07;4.77;;;5.20;99.90;;;;;;5012028;28;20201;-64
2023/12/15 08:22:31;;;;;;;6.90;4.87;;;5.30;99.90;;;;;;5011780;28;20205;-63
2023/12/15 08:25:00;;;;;;;5.63;5.03;;;5.30;99.90;;;;;;5007300;28;20725;-63
2023/12/15 08:27:27;;;;;;;6.37;5.00;;;5.40;99.90;;;;;;5009778;28;20205;-62
2023/12/15 08:29:57;;;;;;;6.23;4.90;;;5.40;99.90;;;;;;5002829;28;20233;-63
2023/12/15 08:32:24;;;;;;;5.90;5.40;;;5.60;99.90;;;;;;5008587;28;20206;-62
2023/12/15 08:34:51;;;;;;;4.73;4.33;;;5.70;99.90;;;;;;5004450;28;20205;-63
2023/12/15 08:37:18;;;;;;;8.10;5.77;;;5.80;99.90;;;;;;5005457;28;20212;-62
2023/12/15 08:39:45;;;;;;;4.27;3.93;;;5.90;99.90;;;;;;5003232;28;20740;-63
2023/12/15 08:42:14;;;;;;;6.00;5.40;;;6.00;99.90;;;;;;5010625;28;20211;-63
2023/12/15 08:44:43;;;;;;;7.30;6.60;;;6.10;99.90;;;;;;5005930;28;20201;-63
2023/12/15 08:47:10;;;;;;;7.20;6.50;;;6.10;99.90;;;;;;5011037;28;20300;-63
2023/12/15 08:49:37;;;;;;;10.97;6.23;;;6.10;99.90;;;;;;5012565;28;20280;-63
2023/12/15 08:52:04;;;;;;;7.33;6.50;;;6.20;99.90;;;;;;5013980;28;20620;-62
2023/12/15 08:54:31;;;;;;;7.10;6.40;;;6.20;99.90;;;;;;5011165;28;20269;-61
2023/12/15 08:56:58;;;;;;;10.30;6.43;;;6.10;99.90;;;;;;5007633;28;20201;-61
2023/12/15 08:59:26;;;;;;;7.03;6.30;;;6.10;99.90;;;;;;5010562;28;20227;-61
2023/12/15 09:01:55;;;;;;;10.07;6.10;;;6.10;99.90;;;;;;5006317;28;20204;-61
2023/12/15 09:04:22;;;;;;;9.60;7.47;;;6.10;99.90;;;;;;5010147;28;20213;-63
2023/12/15 09:06:50;;;;;;;9.03;7.13;;;6.10;99.90;;;;;;5009746;28;20282;-61
2023/12/15 09:09:17;;;;;;;12.27;7.80;;;6.00;99.90;;;;;;5009901;28;20224;-61
2023/12/15 09:11:43;;;;;;;12.10;6.87;;;6.20;99.90;;;;;;5009400;28;20210;-61
2023/12/15 09:14:10;;;;;;;11.07;8.60;;;6.30;99.90;;;;;;5010480;28;20204;-61
2023/12/15 09:16:39;;;;;;;10.47;6.80;;;6.30;99.90;;;;;;5010460;28;20257;-61
2023/12/15 09:19:06;;;;;;;8.00;7.20;;;6.40;99.90;;;;;;5007658;28;20222;-63
2023/12/15 09:21:33;;;;;;;9.13;6.90;;;6.40;99.90;;;;;;5014735;28;20260;-63
2023/12/15 09:24:00;;;;;;;6.73;6.13;;;6.50;99.90;;;;;;5008735;28;20208;-63
2023/12/15 09:26:27;;;;;;;7.93;6.30;;;6.70;99.90;;;;;;5008697;28;20201;-63
2023/12/15 09:28:54;;;;;;;6.60;6.00;;;6.90;99.90;;;;;;5013229;28;20221;-63
2023/12/15 09:31:21;;;;;;;7.57;6.43;;;7.00;99.90;;;;;;5025431;28;20578;-63
2023/12/15 09:33:49;;;;;;;7.57;5.60;;;6.90;99.90;;;;;;5029696;28;20204;-63
2023/12/15 09:36:17;;;;;;;6.53;6.03;;;7.10;99.90;;;;;;5030611;28;20205;-63
2023/12/15 09:38:44;;;;;;;6.50;5.63;;;7.30;99.90;;;;;;5030173;28;20232;-63
2023/12/15 09:41:11;;;;;;;8.47;5.67;;;7.40;99.90;;;;;;5029812;28;20204;-62
2023/12/15 09:43:37;;;;;;;7.50;6.27;;;7.40;99.90;;;;;;5010845;28;20206;-63
2023/12/15 09:46:05;;;;;;;6.90;5.90;;;7.50;99.90;;;;;;5011287;28;20260;-63
2023/12/15 09:48:33;;;;;;;7.07;6.47;;;7.50;99.90;;;;;;5011077;28;20288;-63
2023/12/15 09:51:04;;;;;;;7.27;6.47;;;7.60;99.90;;;;;;5011545;28;20208;-63
2023/12/15 09:53:34;;;;;;;6.07;5.23;;;7.60;99.90;;;;;;5015061;28;20251;-64
2023/12/15 09:56:02;;;;;;;6.07;5.57;;;7.80;99.90;;;;;;5031283;28;20208;-63
2023/12/15 09:58:29;;;;;;;7.33;5.77;;;8.00;99.90;;;;;;5031036;28;20224;-63
2023/12/15 10:00:56;;;;;;;5.73;5.23;;;8.10;99.90;;;;;;5031462;28;20201;-63
2023/12/15 10:03:23;;;;;;;8.87;6.40;;;8.10;99.90;;;;;;5035140;28;20625;-63
2023/12/15 10:05:50;;;;;;;6.90;5.93;;;8.30;99.90;;;;;;5034888;28;20232;-63
2023/12/15 10:08:22;;;;;;;5.70;5.23;;;8.50;99.90;;;;;;5034613;28;20286;-63
2023/12/15 10:10:49;;;;;;;5.27;4.33;;;8.70;99.90;;;;;;5034184;28;20683;-63
2023/12/15 10:13:16;;;;;;;5.87;5.27;;;8.90;99.90;;;;;;5034907;28;20198;-63
2023/12/15 10:15:44;;;;;;;5.27;4.80;;;9.30;99.90;;;;;;5035126;28;20213;-63
2023/12/15 10:18:14;;;;;;;6.10;5.50;;;9.70;99.90;;;;;;5034366;28;20229;-63
2023/12/15 10:20:41;;;;;;;5.07;4.57;;;10.20;99.90;;;;;;5034727;28;20265;-63
2023/12/15 10:23:08;;;;;;;6.27;4.80;;;10.40;99.90;;;;;;5034869;28;20276;-63
2023/12/15 10:25:36;;;;;;;5.03;4.53;;;10.60;99.90;;;;;;5033967;28;20655;-63
2023/12/15 10:28:05;;;;;;;3.80;3.50;;;10.50;99.90;;;;;;5034193;28;20229;-63
2023/12/15 10:30:32;;;;;;;2.13;2.03;;;10.70;99.90;;;;;;5034516;28;20252;-63
2023/12/15 10:32:59;;;;;;;3.10;2.53;;;10.50;99.90;;;;;;5034517;28;20673;-63
2023/12/15 10:35:29;;;;;;;1.70;1.63;;;10.30;99.90;;;;;;5034586;28;20893;-64
2023/12/15 10:37:56;;;;;;;3.23;2.93;;;10.20;99.90;;;;;;5034083;28;20240;-63
2023/12/15 10:40:23;;;;;;;3.50;3.20;;;9.90;99.90;;;;;;5034536;28;20251;-63
2023/12/15 10:42:52;;;;;;;2.47;2.33;;;9.70;99.90;;;;;;5033603;28;20832;-63
2023/12/15 10:45:20;;;;;;;2.57;2.33;;;9.30;99.90;;;;;;5034477;28;20204;-63
2023/12/15 10:47:48;;;;;;;3.00;2.80;;;9.20;99.90;;;;;;5019439;28;20205;-62
2023/12/15 10:50:15;;;;;;;2.63;2.47;;;9.00;99.90;;;;;;5009915;28;20288;-62
2023/12/15 10:52:45;;;;;;;2.63;2.43;;;9.00;99.90;;;;;;5013283;28;20679;-64
2023/12/15 10:55:13;;;;;;;2.07;1.97;;;8.90;99.90;;;;;;5011762;28;20566;-60
2023/12/15 10:57:41;;;;;;;2.03;1.90;;;8.90;99.90;;;;;;5012228;28;20488;-61
2023/12/15 11:00:11;;;;;;;2.10;2.00;;;8.70;99.90;;;;;;5013942;28;20204;-62
2023/12/15 11:02:40;;;;;;;2.83;2.50;;;8.70;99.90;;;;;;5013954;28;20256;-62
2023/12/15 11:05:09;;;;;;;2.47;2.37;;;8.70;99.90;;;;;;5013274;28;20202;-61
2023/12/15 11:07:36;;;;;;;2.80;2.60;;;8.90;99.90;;;;;;5007311;28;20206;-62
2023/12/15 11:10:03;;;;;;;2.10;1.60;;;9.00;99.90;;;;;;5023534;28;20267;-62
2023/12/15 11:12:32;;;;;;;2.40;2.30;;;9.00;99.90;;;;;;5033553;28;20208;-62
2023/12/15 11:15:02;;;;;;;3.33;3.03;;;9.10;99.90;;;;;;5033853;28;20200;-62
2023/12/15 11:17:30;;;;;;;3.33;3.03;;;9.30;99.90;;;;;;5011022;28;20206;-63
2023/12/15 11:20:06;;;;;;;2.47;2.37;;;9.30;99.90;;;;;;5013385;28;20218;-62
2023/12/15 11:22:42;;;;;;;2.03;1.93;;;9.30;99.90;;;;;;5012689;28;20200;-63
2023/12/15 11:25:18;;;;;;;3.30;2.37;;;9.30;99.90;;;;;;5015261;28;20319;-61
2023/12/15 11:28:08;;;;;;;2.53;2.33;;;9.50;99.90;;;;;;5012702;28;20235;-64
2023/12/15 11:30:37;;;;;;;2.60;2.50;;;9.50;99.90;;;;;;5013064;28;20658;-64
2023/12/15 11:33:42;;;;;;;2.53;2.03;;;9.20;99.90;;;;;;5013705;28;20240;-64
2023/12/15 11:36:12;;;;;;;3.10;2.90;;;9.20;99.90;;;;;;5008589;28;20209;-63
2023/12/15 11:38:39;;;;;;;4.17;2.77;;;9.10;99.90;;;;;;5004783;28;20240;-64
2023/12/15 11:41:07;;;;;;;3.20;3.00;;;9.10;99.90;;;;;;5015553;28;20193;-64
2023/12/15 11:43:36;;;;;;;3.53;2.23;;;9.00;99.90;;;;;;5012897;28;20210;-64
2023/12/15 11:46:04;;;;;;;3.40;3.10;;;8.90;99.90;;;;;;5013162;28;20249;-64
2023/12/15 11:48:33;;;;;;;2.93;2.80;;;8.80;99.90;;;;;;5011301;28;20304;-64
2023/12/15 11:51:02;;;;;;;2.90;2.67;;;8.60;99.90;;;;;;5011816;28;20221;-63
2023/12/15 11:53:32;;;;;;;2.40;2.30;;;8.50;99.90;;;;;;5012177;28;20206;-64
2023/12/15 11:56:01;;;;;;;2.73;2.53;;;8.40;99.90;;;;;;5012657;28;20632;-64
2023/12/15 11:58:28;;;;;;;2.93;2.83;;;8.50;99.90;;;;;;5010898;28;20640;-63
2023/12/15 12:00:55;;;;;;;2.50;2.30;;;8.60;99.90;;;;;;5011426;28;20276;-64
2023/12/15 12:03:22;;;;;;;4.07;3.67;;;8.70;99.90;;;;;;5012753;28;20269;-63
2023/12/15 12:05:53;;;;;;;3.43;3.23;;;8.80;99.90;;;;;;5011033;28;20206;-64
2023/12/15 12:08:22;;;;;;;4.07;3.07;;;8.90;99.90;;;;;;5012256;28;20227;-63
2023/12/15 12:10:53;;;;;;;3.23;3.03;;;8.70;99.90;;;;;;5012743;28;20314;-66
2023/12/15 12:13:21;;;;;;;3.00;2.80;;;8.70;99.90;;;;;;5012990;28;20214;-64
2023/12/15 12:15:52;;;;;;;3.23;2.70;;;8.70;99.90;;;;;;5010992;28;20238;-64
2023/12/15 12:18:20;;;;;;;2.50;2.33;;;8.80;99.90;;;;;;5012092;28;20635;-64
2023/12/15 12:20:47;;;;;;;2.83;2.63;;;8.80;99.90;;;;;;5012623;28;20209;-64
2023/12/15 12:23:14;;;;;;;3.10;2.90;;;8.90;99.90;;;;;;5013723;28;20577;-64
2023/12/15 12:25:47;;;;;;;3.47;3.10;;;8.90;99.90;;;;;;5011006;28;20205;-64
2023/12/15 12:28:16;;;;;;;4.33;3.17;;;8.70;99.90;;;;;;5013188;28;20232;-64
2023/12/15 12:30:43;;;;;;;2.80;2.60;;;8.80;99.90;;;;;;5012281;28;20780;-63
2023/12/15 12:33:10;;;;;;;3.57;3.27;;;8.80;99.90;;;;;;5012240;28;20257;-64
2023/12/15 12:35:38;;;;;;;4.00;3.73;;;8.60;99.90;;;;;;5009504;28;20299;-64
2023/12/15 12:38:06;;;;;;;3.57;3.33;;;8.60;99.90;;;;;;5011584;28;20239;-64
2023/12/15 12:40:33;;;;;;;3.07;2.77;;;8.40;99.90;;;;;;5014261;28;20208;-63
2023/12/15 12:43:01;;;;;;;3.57;3.37;;;8.40;99.90;;;;;;5009855;28;20270;-64
2023/12/15 12:45:28;;;;;;;4.27;3.87;;;8.40;99.90;;;;;;5006805;28;20620;-64
2023/12/15 12:47:55;;;;;;;5.43;3.87;;;8.30;99.90;;;;;;5006207;28;20223;-63
2023/12/15 12:50:22;;;;;;;4.97;4.50;;;8.30;99.90;;;;;;5007842;28;20229;-63
2023/12/15 12:52:49;;;;;;;5.97;5.47;;;8.50;99.90;;;;;;5010111;28;20248;-64
2023/12/15 12:55:16;;;;;;;6.90;4.50;;;8.30;99.90;;;;;;5011034;28;20281;-64
2023/12/15 12:57:44;;;;;;;4.87;4.37;;;8.20;99.90;;;;;;5010180;28;20201;-64
2023/12/15 13:00:13;;;;;;;5.40;4.97;;;8.20;99.90;;;;;;5010505;28;20205;-63